createdAt,value
2018-05-31T00:01:26.899Z,34.10
2018-05-31T00:03:53.125Z,29.70
2018-05-31T00:06:21.311Z,33.93
2018-05-31T00:08:47.555Z,38.93
2018-05-31T00:11:13.808Z,29.70
2018-05-31T00:13:40.043Z,29.80
2018-05-31T00:16:07.021Z,31.17
2018-05-31T00:18:33.248Z,27.40
2018-05-31T00:20:59.503Z,32.20
2018-05-31T00:23:25.707Z,25.90
2018-05-31T00:25:51.953Z,28.77
2018-05-31T00:28:18.197Z,28.00
2018-05-31T00:30:44.418Z,22.97
2018-05-31T00:33:11.063Z,30.23
2018-05-31T00:35:37.334Z,31.03
2018-05-31T00:38:03.580Z,46.10
2018-05-31T00:40:29.867Z,32.13
2018-05-31T00:42:56.865Z,36.63
2018-05-31T00:45:23.117Z,27.47
2018-05-31T00:47:49.329Z,32.77
2018-05-31T00:50:15.617Z,34.37
2018-05-31T00:52:41.855Z,30.60
2018-05-31T00:55:08.096Z,32.93
2018-05-31T00:57:34.341Z,30.73
2018-05-31T01:00:00.563Z,31.50
2018-05-31T01:02:26.804Z,29.43
2018-05-31T01:04:53.056Z,29.93
2018-05-31T01:07:19.304Z,36.70
2018-05-31T01:09:45.530Z,34.13
2018-05-31T01:12:11.829Z,43.87
2018-05-31T01:14:38.066Z,33.03
2018-05-31T01:17:04.289Z,31.50
2018-05-31T01:19:31.296Z,28.27
2018-05-31T01:21:57.515Z,28.80
2018-05-31T01:24:23.752Z,34.03
2018-05-31T01:26:50.166Z,30.33
2018-05-31T01:29:17.114Z,32.27
2018-05-31T01:31:44.089Z,27.13
2018-05-31T01:34:11.856Z,28.23
2018-05-31T01:36:38.834Z,34.17
2018-05-31T01:39:06.906Z,37.57
2018-05-31T01:41:33.274Z,31.60
2018-05-31T01:43:59.526Z,35.00
2018-05-31T01:46:26.526Z,35.03
2018-05-31T01:48:52.774Z,27.67
2018-05-31T01:51:19.010Z,30.53
2018-05-31T01:53:45.292Z,27.73
2018-05-31T01:56:11.531Z,32.17
2018-05-31T01:58:37.750Z,35.97
2018-05-31T02:01:04.012Z,31.83
2018-05-31T02:03:30.525Z,29.20
2018-05-31T02:05:57.537Z,27.30
2018-05-31T02:08:23.789Z,27.50
2018-05-31T02:10:50.051Z,29.20
2018-05-31T02:13:16.284Z,32.07
2018-05-31T02:15:42.511Z,34.23
2018-05-31T02:18:08.766Z,37.43
2018-05-31T02:20:34.992Z,34.10
2018-05-31T02:23:01.228Z,29.53
2018-05-31T02:25:27.484Z,33.90
2018-05-31T02:27:53.716Z,28.80
2018-05-31T02:30:19.937Z,35.47
2018-05-31T02:32:46.189Z,28.33
2018-05-31T02:35:12.431Z,28.10
2018-05-31T02:37:38.679Z,33.13
2018-05-31T02:40:04.947Z,37.30
2018-05-31T02:42:31.948Z,36.83
2018-05-31T02:44:58.165Z,37.70
2018-05-31T02:47:24.531Z,35.80
2018-05-31T02:49:50.743Z,36.37
2018-05-31T02:52:16.971Z,32.03
2018-05-31T02:54:43.977Z,32.90
2018-05-31T02:57:10.209Z,31.57
2018-05-31T02:59:36.436Z,28.07
2018-05-31T03:02:02.699Z,29.80
2018-05-31T03:04:28.940Z,34.27
2018-05-31T03:06:55.178Z,34.77
2018-05-31T03:09:21.426Z,30.20
2018-05-31T03:11:47.657Z,36.40
2018-05-31T03:14:13.869Z,37.13
2018-05-31T03:16:41.010Z,32.07
2018-05-31T03:19:07.279Z,41.30
2018-05-31T03:21:33.564Z,32.43
2018-05-31T03:23:59.964Z,33.77
2018-05-31T03:26:26.178Z,33.80
2018-05-31T03:28:52.391Z,40.57
2018-05-31T03:31:18.647Z,33.00
2018-05-31T03:33:44.874Z,30.47
2018-05-31T03:36:11.115Z,28.90
2018-05-31T03:38:37.371Z,32.37
2018-05-31T03:41:03.632Z,37.77
2018-05-31T03:43:30.591Z,33.50
2018-05-31T03:45:57.022Z,36.17
2018-05-31T03:48:23.248Z,27.60
2018-05-31T03:50:49.472Z,34.00
2018-05-31T03:53:15.714Z,36.90
2018-05-31T03:55:42.685Z,33.17
2018-05-31T03:58:08.918Z,32.60
2018-05-31T04:00:35.153Z,38.27
2018-05-31T04:03:01.378Z,39.23
2018-05-31T04:05:27.634Z,39.17
2018-05-31T04:07:53.914Z,35.63
2018-05-31T04:10:20.910Z,37.27
2018-05-31T04:12:47.154Z,36.87
2018-05-31T04:15:13.424Z,36.30
2018-05-31T04:17:39.652Z,36.80
2018-05-31T04:20:05.900Z,35.47
2018-05-31T04:22:32.158Z,40.10
2018-05-31T04:24:58.378Z,37.27
2018-05-31T04:27:24.601Z,34.10
2018-05-31T04:29:50.857Z,37.70
2018-05-31T04:32:17.102Z,39.73
2018-05-31T04:34:43.333Z,35.87
2018-05-31T04:37:09.607Z,37.53
2018-05-31T04:39:36.665Z,36.90
2018-05-31T04:42:02.917Z,36.43
2018-05-31T04:44:29.927Z,33.77
2018-05-31T04:46:56.168Z,40.93
2018-05-31T04:49:22.418Z,34.97
2018-05-31T04:51:48.661Z,37.93
2018-05-31T04:54:14.887Z,36.53
2018-05-31T04:56:41.117Z,35.77
2018-05-31T04:59:07.373Z,42.67
2018-05-31T05:01:33.613Z,36.20
2018-05-31T05:03:59.835Z,38.30
2018-05-31T05:06:26.073Z,38.03
2018-05-31T05:08:52.287Z,31.27
2018-05-31T05:11:19.282Z,36.63
2018-05-31T05:13:45.549Z,36.23
2018-05-31T05:16:11.786Z,38.80
2018-05-31T05:18:38.011Z,34.10
2018-05-31T05:21:04.279Z,31.23
2018-05-31T05:23:30.497Z,35.10
2018-05-31T05:25:56.719Z,36.73
2018-05-31T05:28:22.970Z,43.50
2018-05-31T05:30:49.226Z,35.60
2018-05-31T05:33:15.474Z,33.93
2018-05-31T05:35:41.734Z,35.37
2018-05-31T05:38:07.956Z,39.60
2018-05-31T05:40:34.171Z,32.43
2018-05-31T05:43:00.406Z,31.57
2018-05-31T05:45:26.640Z,31.50
2018-05-31T05:47:52.876Z,34.60
2018-05-31T05:50:19.273Z,32.57
2018-05-31T05:52:45.505Z,29.27
2018-05-31T05:55:11.734Z,32.30
2018-05-31T05:57:38.122Z,35.73
2018-05-31T06:00:05.120Z,36.73
2018-05-31T06:02:31.340Z,29.30
2018-05-31T06:04:57.597Z,30.17
2018-05-31T06:07:23.818Z,34.83
2018-05-31T06:09:50.095Z,34.20
2018-05-31T06:12:16.289Z,33.73
2018-05-31T06:14:42.542Z,34.53
2018-05-31T06:17:08.754Z,34.03
2018-05-31T06:19:35.764Z,37.30
2018-05-31T06:22:02.040Z,32.60
2018-05-31T06:24:28.302Z,33.43
2018-05-31T06:26:54.566Z,34.20
2018-05-31T06:29:20.792Z,31.37
2018-05-31T06:31:47.018Z,37.50
2018-05-31T06:34:14.008Z,39.07
2018-05-31T06:36:40.227Z,31.30
2018-05-31T06:39:07.218Z,35.30
2018-05-31T06:41:33.448Z,29.37
2018-05-31T06:43:59.667Z,30.87
2018-05-31T06:46:25.900Z,32.90
2018-05-31T06:48:52.138Z,29.57
2018-05-31T06:51:18.379Z,33.60
2018-05-31T06:53:44.605Z,27.77
2018-05-31T06:56:10.884Z,31.30
2018-05-31T06:58:37.878Z,37.47
2018-05-31T07:01:04.104Z,31.83
2018-05-31T07:03:30.485Z,38.00
2018-05-31T07:05:56.700Z,33.97
2018-05-31T07:08:22.923Z,33.87
2018-05-31T07:10:49.177Z,39.10
2018-05-31T07:13:15.373Z,36.13
2018-05-31T07:15:41.586Z,37.23
2018-05-31T07:18:07.824Z,37.93
2018-05-31T07:20:34.064Z,32.90
2018-05-31T07:23:00.276Z,36.47
2018-05-31T07:25:26.515Z,37.77
2018-05-31T07:27:52.727Z,45.60
2018-05-31T07:30:18.991Z,31.13
2018-05-31T07:32:45.222Z,29.40
2018-05-31T07:35:11.456Z,38.50
2018-05-31T07:37:38.452Z,40.60
2018-05-31T07:40:04.719Z,37.20
2018-05-31T07:42:30.931Z,32.10
2018-05-31T07:44:57.183Z,36.20
2018-05-31T07:47:23.470Z,35.53
2018-05-31T07:49:49.699Z,34.63
2018-05-31T07:52:15.903Z,36.37
2018-05-31T07:54:42.147Z,30.27
2018-05-31T07:57:08.362Z,32.97
2018-05-31T07:59:34.599Z,35.60
2018-05-31T08:02:00.851Z,34.80
2018-05-31T08:04:27.091Z,40.40
2018-05-31T08:06:53.302Z,31.10
2018-05-31T08:09:19.562Z,30.70
2018-05-31T08:11:45.769Z,43.83
2018-05-31T08:14:11.986Z,32.50
2018-05-31T08:16:38.242Z,34.23
2018-05-31T08:19:04.475Z,32.00
2018-05-31T08:21:30.698Z,32.80
2018-05-31T08:23:56.941Z,37.73
2018-05-31T08:26:23.161Z,30.70
2018-05-31T08:28:49.378Z,30.33
2018-05-31T08:31:15.627Z,26.67
2018-05-31T08:33:41.847Z,26.10
2018-05-31T08:36:08.084Z,37.47
2018-05-31T08:38:34.382Z,31.97
2018-05-31T08:41:00.596Z,30.10
2018-05-31T08:43:26.826Z,24.07
2018-05-31T08:45:53.076Z,27.53
2018-05-31T08:48:19.297Z,26.77
2018-05-31T08:50:45.516Z,33.43
2018-05-31T08:53:11.775Z,29.00
2018-05-31T08:55:38.037Z,24.20
2018-05-31T08:58:04.256Z,27.80
2018-05-31T09:00:30.520Z,21.23
2018-05-31T09:02:56.742Z,25.70
2018-05-31T09:05:22.966Z,29.10
2018-05-31T09:07:49.216Z,30.77
2018-05-31T09:10:15.444Z,29.07
2018-05-31T09:12:41.678Z,30.30
2018-05-31T09:15:08.695Z,30.67
2018-05-31T09:17:34.960Z,21.60
2018-05-31T09:20:01.189Z,22.77
2018-05-31T09:22:27.482Z,25.17
2018-05-31T09:24:53.741Z,23.67
2018-05-31T09:27:19.959Z,22.23
2018-05-31T09:29:46.201Z,25.00
2018-05-31T09:32:12.412Z,22.00
2018-05-31T09:34:38.639Z,20.10
2018-05-31T09:37:04.896Z,19.10
2018-05-31T09:39:31.178Z,20.47
2018-05-31T09:41:57.407Z,23.60
2018-05-31T09:44:23.670Z,15.93
2018-05-31T09:46:49.882Z,22.90
2018-05-31T09:49:16.093Z,18.40
2018-05-31T09:51:42.363Z,20.20
2018-05-31T09:54:09.359Z,20.30
2018-05-31T09:56:35.593Z,22.13
2018-05-31T09:59:01.866Z,22.00
2018-05-31T10:01:28.102Z,23.57
2018-05-31T10:03:54.320Z,22.97
2018-05-31T10:06:20.719Z,20.73
2018-05-31T10:08:46.955Z,23.47
2018-05-31T10:11:13.189Z,24.83
2018-05-31T10:13:39.450Z,23.73
2018-05-31T10:16:05.693Z,23.37
2018-05-31T10:18:31.919Z,23.67
2018-05-31T10:20:58.177Z,18.53
2018-05-31T10:23:24.413Z,19.70
2018-05-31T10:25:50.633Z,18.70
2018-05-31T10:28:17.772Z,15.70
2018-05-31T10:30:43.997Z,21.30
2018-05-31T10:33:10.255Z,16.30
2018-05-31T10:35:36.511Z,20.83
2018-05-31T10:38:03.231Z,23.30
2018-05-31T10:40:29.471Z,23.20
2018-05-31T10:42:55.742Z,22.40
2018-05-31T10:45:21.972Z,21.80
2018-05-31T10:47:48.211Z,18.40
2018-05-31T10:50:14.455Z,18.87
2018-05-31T10:52:40.666Z,22.93
2018-05-31T10:55:06.910Z,18.83
2018-05-31T10:57:33.164Z,19.20
2018-05-31T10:59:59.401Z,18.30
2018-05-31T11:02:25.661Z,25.57
2018-05-31T11:04:52.662Z,27.00
2018-05-31T11:07:18.879Z,16.20
2018-05-31T11:09:45.099Z,23.77
2018-05-31T11:12:11.345Z,15.20
2018-05-31T11:14:37.575Z,16.77
2018-05-31T11:17:03.826Z,19.63
2018-05-31T11:19:30.070Z,20.10
2018-05-31T11:21:56.305Z,23.90
2018-05-31T11:24:22.526Z,17.53
2018-05-31T11:26:48.785Z,19.77
2018-05-31T11:29:15.027Z,19.53
2018-05-31T11:31:41.252Z,20.47
2018-05-31T11:34:07.520Z,14.23
2018-05-31T11:36:34.477Z,16.00
2018-05-31T11:39:00.716Z,18.27
2018-05-31T11:41:27.717Z,18.10
2018-05-31T11:43:53.959Z,19.00
2018-05-31T11:46:20.188Z,26.13
2018-05-31T11:48:46.443Z,17.57
2018-05-31T11:51:12.678Z,16.40
2018-05-31T11:53:38.905Z,16.13
2018-05-31T11:56:05.173Z,18.67
2018-05-31T11:58:31.416Z,20.17
2018-05-31T12:00:57.638Z,18.63
2018-05-31T12:03:23.899Z,20.93
2018-05-31T12:05:50.143Z,16.60
2018-05-31T12:08:16.389Z,17.87
2018-05-31T12:10:42.679Z,23.33
2018-05-31T12:13:08.930Z,17.97
2018-05-31T12:15:35.169Z,14.50
2018-05-31T12:18:01.435Z,18.00
2018-05-31T12:20:27.674Z,16.57
2018-05-31T12:22:53.892Z,16.63
2018-05-31T12:25:20.155Z,21.20
2018-05-31T12:27:46.403Z,21.33
2018-05-31T12:30:12.658Z,28.70
2018-05-31T12:32:38.928Z,20.17
2018-05-31T12:35:05.215Z,21.00
2018-05-31T12:37:31.443Z,20.80
2018-05-31T12:39:57.739Z,23.90
2018-05-31T12:42:23.951Z,15.33
2018-05-31T12:44:50.179Z,28.00
2018-05-31T12:47:16.570Z,19.33
2018-05-31T12:49:42.789Z,21.73
2018-05-31T12:52:09.035Z,17.70
2018-05-31T12:54:35.312Z,24.83
2018-05-31T12:57:01.524Z,23.80
2018-05-31T12:59:27.744Z,16.97
2018-05-31T13:01:54.002Z,21.70
2018-05-31T13:04:20.246Z,24.50
2018-05-31T13:06:46.489Z,23.83
2018-05-31T13:09:12.728Z,15.37
2018-05-31T13:11:38.966Z,15.37
2018-05-31T13:14:05.213Z,20.97
2018-05-31T13:16:31.488Z,21.80
2018-05-31T13:18:57.715Z,19.93
2018-05-31T13:21:24.670Z,20.93
2018-05-31T13:23:50.910Z,18.93
2018-05-31T13:26:17.145Z,18.67
2018-05-31T13:28:43.384Z,16.73
2018-05-31T13:31:09.628Z,20.00
2018-05-31T13:33:35.865Z,16.50
2018-05-31T13:36:02.875Z,18.73
2018-05-31T13:38:29.126Z,17.23
2018-05-31T13:40:55.396Z,23.97
2018-05-31T13:43:21.619Z,24.40
2018-05-31T13:45:48.063Z,21.00
2018-05-31T13:48:14.279Z,20.03
2018-05-31T13:50:40.487Z,18.53
2018-05-31T13:53:07.471Z,14.17
2018-05-31T13:55:33.698Z,19.97
2018-05-31T13:57:59.902Z,21.23
2018-05-31T14:00:26.145Z,28.00
2018-05-31T14:02:52.371Z,15.73
2018-05-31T14:05:18.615Z,17.13
2018-05-31T14:07:44.857Z,23.27
2018-05-31T14:10:11.073Z,17.23
2018-05-31T14:12:37.298Z,18.50
2018-05-31T14:15:03.581Z,22.10
2018-05-31T14:17:29.805Z,15.20
2018-05-31T14:19:56.018Z,14.73
2018-05-31T14:22:22.261Z,13.47
2018-05-31T14:24:48.462Z,17.90
2018-05-31T14:27:15.437Z,12.70
2018-05-31T14:29:41.676Z,17.60
2018-05-31T14:32:07.901Z,12.70
2018-05-31T14:34:34.857Z,19.47
2018-05-31T14:37:01.831Z,22.33
2018-05-31T14:39:28.782Z,18.70
2018-05-31T14:41:55.795Z,11.40
2018-05-31T14:44:22.057Z,19.63
2018-05-31T14:46:48.297Z,15.50
2018-05-31T14:49:14.535Z,13.93
2018-05-31T14:51:41.193Z,11.47
2018-05-31T14:54:07.453Z,14.17
2018-05-31T14:56:33.679Z,14.83
2018-05-31T14:58:59.959Z,9.63
2018-05-31T15:01:26.222Z,12.93
2018-05-31T15:03:52.463Z,12.40
2018-05-31T15:06:18.713Z,15.43
2018-05-31T15:08:44.946Z,17.50
2018-05-31T15:11:11.191Z,13.17
2018-05-31T15:13:37.475Z,16.03
2018-05-31T15:16:04.491Z,22.83
2018-05-31T15:18:30.716Z,20.20
2018-05-31T15:20:56.960Z,13.53
2018-05-31T15:23:23.204Z,15.50
2018-05-31T15:25:49.421Z,11.80
2018-05-31T15:28:15.658Z,19.97
2018-05-31T15:30:41.875Z,21.97
2018-05-31T15:33:08.114Z,15.67
2018-05-31T15:35:34.578Z,18.17
2018-05-31T15:38:00.784Z,15.20
2018-05-31T15:40:27.011Z,11.97
2018-05-31T15:42:53.296Z,17.27
2018-05-31T15:45:20.281Z,11.57
2018-05-31T15:47:46.509Z,14.93
2018-05-31T15:50:12.776Z,12.20
2018-05-31T15:52:39.020Z,16.23
2018-05-31T15:55:05.239Z,14.27
2018-05-31T15:57:31.484Z,14.17
2018-05-31T15:59:57.727Z,10.03
2018-05-31T16:02:23.996Z,15.93
2018-05-31T16:04:50.271Z,12.10
2018-05-31T16:07:17.246Z,15.23
2018-05-31T16:09:43.496Z,19.97
2018-05-31T16:12:09.794Z,18.53
2018-05-31T16:14:36.022Z,13.07
2018-05-31T16:17:02.254Z,15.13
2018-05-31T16:19:28.502Z,12.63
2018-05-31T16:21:54.724Z,21.40
2018-05-31T16:24:20.930Z,9.53
2018-05-31T16:26:47.198Z,19.30
2018-05-31T16:29:13.434Z,17.90
2018-05-31T16:31:39.657Z,24.57
2018-05-31T16:34:06.088Z,18.23
2018-05-31T16:36:32.307Z,15.23
2018-05-31T16:38:58.561Z,16.33
2018-05-31T16:41:25.569Z,20.07
2018-05-31T16:43:52.435Z,18.43
2018-05-31T16:46:18.656Z,16.60
2018-05-31T16:48:44.912Z,20.80
2018-05-31T16:51:11.160Z,15.60
2018-05-31T16:53:37.414Z,13.33
2018-05-31T16:56:03.669Z,34.70
2018-05-31T16:58:29.953Z,14.33
2018-05-31T17:00:56.199Z,13.43
2018-05-31T17:03:22.483Z,16.60
2018-05-31T17:05:48.746Z,11.23
2018-05-31T17:08:15.766Z,11.70
2018-05-31T17:10:42.027Z,13.70
2018-05-31T17:13:08.269Z,13.70
2018-05-31T17:15:34.517Z,11.13
2018-05-31T17:18:00.823Z,12.17
2018-05-31T17:20:27.065Z,10.60
2018-05-31T17:22:53.333Z,15.53
2018-05-31T17:25:19.664Z,10.80
2018-05-31T17:27:45.890Z,12.10
2018-05-31T17:30:12.135Z,16.63
2018-05-31T17:32:38.413Z,12.53
2018-05-31T17:35:05.420Z,14.33
2018-05-31T17:37:31.673Z,17.20
2018-05-31T17:39:57.977Z,13.07
2018-05-31T17:42:24.206Z,20.37
2018-05-31T17:44:50.682Z,17.13
2018-05-31T17:47:16.952Z,9.00
2018-05-31T17:49:43.206Z,11.50
2018-05-31T17:52:09.426Z,16.47
2018-05-31T17:54:35.698Z,15.90
2018-05-31T17:57:02.742Z,11.13
2018-05-31T17:59:29.018Z,14.70
2018-05-31T18:01:55.313Z,11.53
2018-05-31T18:04:21.577Z,10.40
2018-05-31T18:06:47.875Z,11.90
2018-05-31T18:09:14.244Z,13.47
2018-05-31T18:11:40.491Z,10.00
2018-05-31T18:14:06.759Z,13.67
2018-05-31T18:16:33.813Z,11.90
2018-05-31T18:19:00.811Z,14.53
2018-05-31T18:21:27.165Z,17.70
2018-05-31T18:23:53.447Z,11.10
2018-05-31T18:26:20.478Z,7.70
2018-05-31T18:28:46.782Z,13.60
2018-05-31T18:31:13.142Z,10.50
2018-05-31T18:33:39.467Z,11.70
2018-05-31T18:36:05.774Z,11.77
2018-05-31T18:38:32.136Z,15.77
2018-05-31T18:40:58.429Z,11.23
2018-05-31T18:43:24.727Z,10.47
2018-05-31T18:45:51.552Z,10.30
2018-05-31T18:48:17.857Z,15.90
2018-05-31T18:50:44.136Z,14.33
2018-05-31T18:53:10.458Z,10.67
2018-05-31T18:55:36.780Z,14.40
2018-05-31T18:58:03.084Z,22.73
2018-05-31T19:00:30.138Z,12.63
2018-05-31T19:02:56.455Z,16.70
2018-05-31T19:05:22.740Z,22.30
2018-05-31T19:07:49.174Z,14.10
2018-05-31T19:10:15.483Z,9.10
2018-05-31T19:12:47.690Z,9.80
2018-05-31T19:15:21.632Z,11.53
2018-05-31T19:17:41.204Z,13.50
2018-05-31T19:20:07.527Z,11.63
2018-05-31T19:22:33.925Z,9.93
2018-05-31T19:25:06.265Z,12.93
2018-05-31T19:27:33.296Z,11.97
2018-05-31T19:30:05.678Z,10.30
2018-05-31T19:32:32.067Z,7.73
2018-05-31T19:34:58.277Z,14.77
2018-05-31T19:37:24.607Z,11.90
2018-05-31T19:39:50.892Z,13.27
2018-05-31T19:42:23.979Z,11.60
2018-05-31T19:44:50.302Z,11.30
2018-05-31T19:47:16.632Z,9.43
2018-05-31T19:49:42.938Z,14.40
2018-05-31T19:52:15.273Z,12.50
2018-05-31T19:54:42.470Z,20.20
2018-05-31T19:57:08.781Z,10.83
2018-05-31T19:59:41.015Z,11.73
2018-05-31T20:02:28.151Z,9.97
2018-05-31T20:04:54.629Z,9.47
2018-05-31T20:07:20.978Z,12.33
2018-05-31T20:09:47.301Z,12.17
2018-05-31T20:12:13.609Z,21.83
2018-05-31T20:14:39.883Z,17.63
2018-05-31T20:17:06.175Z,14.07
2018-05-31T20:19:32.717Z,15.13
2018-05-31T20:21:59.751Z,13.43
2018-05-31T20:24:26.013Z,15.93
2018-05-31T20:26:53.062Z,15.63
2018-05-31T20:29:19.342Z,9.57
2018-05-31T20:31:45.662Z,17.17
2018-05-31T20:34:12.724Z,15.23
2018-05-31T20:36:39.056Z,16.13
2018-05-31T20:39:06.095Z,21.03
2018-05-31T20:41:32.407Z,13.43
2018-05-31T20:43:58.688Z,25.50
2018-05-31T20:46:25.195Z,18.70
2018-05-31T20:48:51.509Z,13.43
2018-05-31T20:51:17.804Z,23.23
2018-05-31T20:53:44.096Z,21.03
2018-05-31T20:56:10.472Z,16.23
2018-05-31T20:58:36.796Z,18.33
2018-05-31T21:01:03.060Z,20.00
2018-05-31T21:03:29.344Z,17.57
2018-05-31T21:05:55.568Z,16.07
2018-05-31T21:08:22.923Z,23.63
2018-05-31T21:10:49.214Z,17.07
2018-05-31T21:13:15.481Z,13.40
2018-05-31T21:15:41.761Z,13.60
2018-05-31T21:18:08.012Z,15.23
2018-05-31T21:20:34.256Z,15.70
2018-05-31T21:23:01.222Z,13.90
2018-05-31T21:25:27.565Z,14.73
2018-05-31T21:27:53.806Z,14.33
2018-05-31T21:30:20.780Z,16.13
2018-05-31T21:32:47.017Z,14.57
2018-05-31T21:35:13.247Z,21.50
2018-05-31T21:37:39.480Z,14.60
2018-05-31T21:40:06.501Z,19.90
2018-05-31T21:42:32.716Z,16.23
2018-05-31T21:44:58.941Z,14.87
2018-05-31T21:47:25.273Z,11.47
2018-05-31T21:49:52.235Z,22.17
2018-05-31T21:52:19.189Z,13.10
2018-05-31T21:54:46.191Z,21.23
2018-05-31T21:57:12.403Z,16.10
2018-05-31T21:59:38.619Z,13.83
2018-05-31T22:02:05.771Z,18.47
2018-05-31T22:04:32.754Z,13.97
2018-05-31T22:06:59.707Z,21.80
2018-05-31T22:09:25.976Z,15.30
2018-05-31T22:11:52.219Z,16.13
2018-05-31T22:14:18.424Z,16.17
2018-05-31T22:16:45.387Z,15.67
2018-05-31T22:19:11.653Z,15.53
2018-05-31T22:21:37.879Z,18.93
2018-05-31T22:24:04.149Z,15.83
2018-05-31T22:26:30.395Z,18.97
2018-05-31T22:28:56.618Z,15.87
2018-05-31T22:31:22.982Z,18.13
2018-05-31T22:33:49.187Z,13.67
2018-05-31T22:36:15.388Z,17.17
2018-05-31T22:38:41.642Z,11.27
2018-05-31T22:41:08.634Z,13.50
2018-05-31T22:43:34.840Z,17.77
2018-05-31T22:46:01.929Z,20.07
2018-05-31T22:48:29.220Z,15.60
2018-05-31T22:50:55.426Z,14.50
2018-05-31T22:53:21.668Z,24.57
2018-05-31T22:55:47.878Z,13.60
2018-05-31T22:58:14.089Z,15.53
2018-05-31T23:00:40.328Z,12.73
2018-05-31T23:03:06.572Z,15.63
2018-05-31T23:05:32.794Z,12.63
2018-05-31T23:07:59.018Z,22.67
2018-05-31T23:10:25.248Z,17.93
2018-05-31T23:12:51.475Z,14.30
2018-05-31T23:15:18.530Z,17.10
2018-05-31T23:17:45.502Z,12.93
2018-05-31T23:20:12.460Z,14.00
2018-05-31T23:22:38.703Z,15.10
2018-05-31T23:25:04.930Z,18.03
2018-05-31T23:27:31.883Z,15.87
2018-05-31T23:29:58.864Z,16.67
2018-05-31T23:32:25.082Z,15.07
2018-05-31T23:34:51.306Z,21.57
2018-05-31T23:37:17.671Z,17.13
2018-05-31T23:39:43.862Z,23.47
2018-05-31T23:42:10.065Z,13.57
2018-05-31T23:44:36.311Z,16.43
2018-05-31T23:47:02.553Z,15.37
2018-05-31T23:49:28.943Z,13.70
2018-05-31T23:51:55.249Z,15.53
2018-05-31T23:54:21.468Z,14.13
2018-05-31T23:56:47.677Z,15.20
2018-05-31T23:59:13.920Z,15.70
